Ten Lake, Minnesota
Current Conditions -  °F | °C
As of 3:33 AM on Thursday 23 Oct 2014 (Local Time) from KBJI Reporting Station
Haze Haze  
Wind Chill: 45°   Ceiling: Unl
Heat Index: 48°   Visibility: 4mi
Dew Point: 47°   Wind: 6mph
Humidity: 98%   Direction: 170°S
Pressure: 29.89"   Gusts: NA
Location:  47.5271°N, 94.7611°W
Report Text: KBJI 230833Z AUTO 17005KT 4SM BR CLR 09/09 A2989 RMK AO2 T00880085
Loading
Personal Weather Stations






























Interactive Weather Map
Tropical Storm Tracking
New forecast layout! Learn more

10-Day Weather Forecast

Advertisements
Track Severe Weather on mobile